createdAt,value
2023-05-23T00:01:17.268Z,97227.91
2023-05-23T00:03:45.825Z,97212.31
2023-05-23T00:06:15.568Z,97220.81
2023-05-23T00:08:43.708Z,97202.09
2023-05-23T00:11:13.499Z,97215.72
2023-05-23T00:13:43.500Z,97218.66
2023-05-23T00:16:11.689Z,97221.97
2023-05-23T00:18:43.255Z,97223.66
2023-05-23T00:21:11.469Z,97227.06
2023-05-23T00:23:42.466Z,97229.59
2023-05-23T00:26:10.798Z,97215.53
2023-05-23T00:28:39.142Z,97219.13
2023-05-23T00:31:07.556Z,97226.22
2023-05-23T00:33:36.445Z,97223.56
2023-05-23T00:36:04.805Z,97228.66
2023-05-23T00:38:33.294Z,97228.75
2023-05-23T00:41:03.506Z,97227.53
2023-05-23T00:43:31.800Z,97226.50
2023-05-23T00:46:00.841Z,97227.13
2023-05-23T00:48:29.897Z,97220.88
2023-05-23T00:50:58.966Z,97222.69
2023-05-23T00:53:27.705Z,97214.34
2023-05-23T00:55:56.044Z,97222.97
2023-05-23T00:58:26.440Z,97166.38
2023-05-23T01:00:55.863Z,97125.22
2023-05-23T01:03:28.847Z,97210.84
2023-05-23T01:05:57.399Z,97221.34
2023-05-23T01:08:25.626Z,97209.22
2023-05-23T01:10:54.211Z,97216.69
2023-05-23T01:13:30.918Z,97217.94
2023-05-23T01:16:04.687Z,97221.50
2023-05-23T01:18:38.545Z,97219.03
2023-05-23T01:21:10.839Z,97146.88
2023-05-23T01:24:05.352Z,97211.28
2023-05-23T01:26:42.578Z,97211.38
2023-05-23T01:29:16.474Z,97202.06
2023-05-23T01:31:46.792Z,97205.44
2023-05-23T01:34:17.245Z,97201.56
2023-05-23T01:36:46.851Z,97205.81
2023-05-23T01:39:14.987Z,97203.13
2023-05-23T01:41:43.233Z,97213.25
2023-05-23T01:44:13.019Z,97204.84
2023-05-23T01:46:42.345Z,97204.94
2023-05-23T01:49:13.590Z,97195.28
2023-05-23T01:51:42.733Z,97197.69
2023-05-23T01:54:11.264Z,97198.69
2023-05-23T01:56:39.732Z,97176.94
2023-05-23T01:59:08.277Z,97200.69
2023-05-23T02:01:38.838Z,97195.66
2023-05-23T02:04:07.146Z,97195.06
2023-05-23T02:06:35.371Z,97192.06
2023-05-23T02:09:04.229Z,97152.72
2023-05-23T02:11:32.539Z,97186.53
2023-05-23T02:14:01.261Z,97192.28
2023-05-23T02:16:29.490Z,97183.25
2023-05-23T02:18:59.612Z,97192.28
2023-05-23T02:21:27.743Z,97189.13
2023-05-23T02:23:56.058Z,97136.91
2023-05-23T02:26:24.838Z,97187.59
2023-05-23T02:28:53.021Z,97184.28
2023-05-23T02:31:21.686Z,97185.13
2023-05-23T02:33:50.034Z,97187.69
2023-05-23T02:36:19.677Z,97181.38
2023-05-23T02:38:47.943Z,97181.63
2023-05-23T02:41:16.308Z,97175.91
2023-05-23T02:43:47.507Z,97146.09
2023-05-23T02:46:15.832Z,97165.94
2023-05-23T02:48:44.108Z,97159.16
2023-05-23T02:51:13.794Z,97146.28
2023-05-23T02:53:43.352Z,97162.78
2023-05-23T02:56:11.948Z,97151.63
2023-05-23T02:58:40.347Z,97143.53
2023-05-23T03:01:09.788Z,97165.38
2023-05-23T03:03:38.168Z,97101.13
2023-05-23T03:06:06.507Z,97157.06
2023-05-23T03:08:34.885Z,97069.09
2023-05-23T03:11:04.533Z,97159.16
2023-05-23T03:13:32.992Z,97142.69
2023-05-23T03:16:01.558Z,97094.91
2023-05-23T03:18:29.870Z,97158.31
2023-05-23T03:20:58.411Z,97153.34
2023-05-23T03:23:26.671Z,97161.81
2023-05-23T03:25:55.060Z,97161.88
2023-05-23T03:28:24.775Z,97158.13
2023-05-23T03:30:53.083Z,97152.75
2023-05-23T03:33:21.467Z,97167.31
2023-05-23T03:35:49.706Z,97164.53
2023-05-23T03:38:18.163Z,97170.69
2023-05-23T03:40:46.628Z,97165.03
2023-05-23T03:43:15.351Z,97167.66
2023-05-23T03:45:45.367Z,97163.25
2023-05-23T03:48:13.817Z,97169.97
2023-05-23T03:50:42.080Z,97169.13
2023-05-23T03:53:10.489Z,97176.28
2023-05-23T03:55:38.992Z,97171.09
2023-05-23T03:58:07.799Z,97177.84
2023-05-23T04:00:36.067Z,97172.28
2023-05-23T04:03:06.068Z,97179.09
2023-05-23T04:05:34.358Z,97179.66
2023-05-23T04:08:02.980Z,97182.16
2023-05-23T04:10:31.539Z,97182.53
2023-05-23T04:12:59.921Z,97178.00
2023-05-23T04:15:28.301Z,97175.69
2023-05-23T04:17:56.712Z,97183.09
2023-05-23T04:20:26.547Z,97175.88
2023-05-23T04:22:54.820Z,97168.50
2023-05-23T04:25:23.011Z,97176.91
2023-05-23T04:27:51.270Z,97178.72
2023-05-23T04:30:19.520Z,97183.06
2023-05-23T04:32:48.501Z,97167.84
2023-05-23T04:35:16.908Z,97124.16
2023-05-23T04:37:47.284Z,97178.25
2023-05-23T04:40:16.410Z,97210.31
2023-05-23T04:42:44.779Z,97177.00
2023-05-23T04:45:13.325Z,97168.47
2023-05-23T04:47:42.232Z,97175.66
2023-05-23T04:50:11.300Z,97168.53
2023-05-23T04:52:39.591Z,97167.09
2023-05-23T04:55:10.052Z,97151.63
2023-05-23T04:57:38.521Z,97169.59
2023-05-23T05:00:10.929Z,97172.41
2023-05-23T05:02:41.092Z,97180.63
2023-05-23T05:05:10.002Z,97177.16
2023-05-23T05:07:38.201Z,97173.16
2023-05-23T05:10:09.545Z,97167.00
2023-05-23T05:12:37.748Z,97159.78
2023-05-23T05:15:06.977Z,97165.22
2023-05-23T05:17:37.217Z,97165.81
2023-05-23T05:20:08.959Z,97165.94
2023-05-23T05:22:40.375Z,97159.66
2023-05-23T05:25:11.959Z,97112.50
2023-05-23T05:27:41.308Z,97117.00
2023-05-23T05:30:11.379Z,97155.75
2023-05-23T05:32:39.744Z,97144.81
2023-05-23T05:35:09.171Z,97148.53
2023-05-23T05:37:37.388Z,97146.38
2023-05-23T05:40:09.129Z,97143.94
2023-05-23T05:42:38.712Z,97150.28
2023-05-23T05:45:08.138Z,97144.72
2023-05-23T05:47:37.243Z,97146.97
2023-05-23T05:50:06.263Z,97154.88
2023-05-23T05:52:34.979Z,97147.53
2023-05-23T05:55:03.168Z,97136.91
2023-05-23T05:57:31.370Z,97148.66
2023-05-23T06:00:01.136Z,97139.97
2023-05-23T06:02:29.395Z,97129.28
2023-05-23T06:04:57.667Z,97137.44
2023-05-23T06:07:26.253Z,97143.47
2023-05-23T06:09:54.435Z,97133.94
2023-05-23T06:12:22.568Z,97130.72
2023-05-23T06:14:50.635Z,97126.25
2023-05-23T06:17:20.684Z,97121.19
2023-05-23T06:19:48.881Z,97130.75
2023-05-23T06:22:17.318Z,97127.59
2023-05-23T06:24:45.538Z,97123.44
2023-05-23T06:27:13.793Z,97126.84
2023-05-23T06:29:41.961Z,97127.91
2023-05-23T06:32:10.191Z,97131.03
2023-05-23T06:34:39.970Z,97138.50
2023-05-23T06:37:08.205Z,97139.91
2023-05-23T06:39:36.557Z,97122.03
2023-05-23T06:42:04.936Z,97122.84
2023-05-23T06:44:33.136Z,97125.34
2023-05-23T06:47:01.351Z,97124.44
2023-05-23T06:49:29.644Z,97125.34
2023-05-23T06:51:59.324Z,97126.63
2023-05-23T06:54:27.510Z,97093.78
2023-05-23T06:56:55.805Z,97116.53
2023-05-23T06:59:23.958Z,97109.91
2023-05-23T07:01:52.228Z,97118.34
2023-05-23T07:04:20.417Z,97107.31
2023-05-23T07:06:49.147Z,97112.50
2023-05-23T07:09:18.747Z,97116.47
2023-05-23T07:11:46.962Z,97118.91
2023-05-23T07:14:15.215Z,97105.84
2023-05-23T07:16:43.512Z,97107.19
2023-05-23T07:19:11.808Z,97100.75
2023-05-23T07:21:40.058Z,97094.81
2023-05-23T07:24:08.350Z,97091.22
2023-05-23T07:26:37.908Z,97088.09
2023-05-23T07:29:06.196Z,97097.81
2023-05-23T07:31:34.546Z,97095.06
2023-05-23T07:34:02.827Z,97082.72
2023-05-23T07:36:34.856Z,97097.09
2023-05-23T07:39:03.413Z,97089.63
2023-05-23T07:41:31.587Z,97090.06
2023-05-23T07:44:01.281Z,97087.38
2023-05-23T07:46:29.506Z,97077.50
2023-05-23T07:48:57.647Z,97025.81
2023-05-23T07:51:25.876Z,97081.38
2023-05-23T07:53:54.108Z,97078.53
2023-05-23T07:56:22.294Z,97068.22
2023-05-23T07:58:50.427Z,97080.59
2023-05-23T08:01:20.447Z,97073.94
2023-05-23T08:03:48.650Z,97072.38
2023-05-23T08:06:16.928Z,97072.19
2023-05-23T08:08:45.139Z,97066.84
2023-05-23T08:11:13.367Z,97070.81
2023-05-23T08:13:41.567Z,97067.44
2023-05-23T08:16:09.909Z,97063.50
2023-05-23T08:18:39.788Z,97052.59
2023-05-23T08:21:08.045Z,97064.28
2023-05-23T08:23:36.258Z,97048.00
2023-05-23T08:26:04.565Z,97066.97
2023-05-23T08:28:34.836Z,97065.22
2023-05-23T08:31:03.162Z,97052.84
2023-05-23T08:33:31.368Z,97054.31
2023-05-23T08:36:01.060Z,97059.72
2023-05-23T08:38:29.233Z,97059.75
2023-05-23T08:40:59.208Z,97041.06
2023-05-23T08:43:27.434Z,97053.66
2023-05-23T08:45:55.811Z,96968.91
2023-05-23T08:48:25.394Z,97059.56
2023-05-23T08:50:54.693Z,97041.81
2023-05-23T08:53:28.519Z,97054.53
2023-05-23T08:55:59.323Z,97051.13
2023-05-23T08:58:29.528Z,97052.91
2023-05-23T09:00:57.712Z,97056.81
2023-05-23T09:03:27.702Z,97050.16
2023-05-23T09:05:56.804Z,97058.06
2023-05-23T09:08:26.499Z,97029.19
2023-05-23T09:10:56.099Z,97038.72
2023-05-23T09:13:24.413Z,97032.44
2023-05-23T09:16:02.722Z,97027.84
2023-05-23T09:18:36.306Z,97023.03
2023-05-23T09:21:04.670Z,97026.03
2023-05-23T09:23:35.150Z,97013.91
2023-05-23T09:26:05.104Z,97015.59
2023-05-23T09:28:34.572Z,97017.16
2023-05-23T09:31:03.581Z,96947.97
2023-05-23T09:33:38.226Z,97012.78
2023-05-23T09:36:07.591Z,97004.00
2023-05-23T09:38:41.331Z,97002.34
2023-05-23T09:41:12.371Z,97004.06
2023-05-23T09:43:41.216Z,97003.91
2023-05-23T09:46:11.413Z,96995.72
2023-05-23T09:48:40.138Z,96997.94
2023-05-23T09:51:10.377Z,96960.91
2023-05-23T09:53:38.733Z,96910.78
2023-05-23T09:56:11.694Z,96994.31
2023-05-23T09:58:40.588Z,96975.22
2023-05-23T10:01:11.856Z,96976.22
2023-05-23T10:03:47.685Z,96979.44
2023-05-23T10:06:22.833Z,96965.25
2023-05-23T10:08:56.842Z,96982.28
2023-05-23T10:12:21.581Z,96977.72
2023-05-23T10:14:54.045Z,96967.88
2023-05-23T10:17:34.249Z,96976.66
2023-05-23T10:20:08.644Z,96971.44
2023-05-23T10:22:37.796Z,96974.47
2023-05-23T10:25:07.198Z,96968.63
2023-05-23T10:27:37.036Z,96958.88
2023-05-23T10:30:06.727Z,96906.72
2023-05-23T10:32:36.000Z,96949.53
2023-05-23T10:35:13.421Z,96901.41
2023-05-23T10:37:49.889Z,96938.09
2023-05-23T10:40:25.794Z,96935.88
2023-05-23T10:43:03.155Z,96930.00
2023-05-23T10:45:31.715Z,96931.03
2023-05-23T10:48:01.807Z,96917.84
2023-05-23T10:50:34.508Z,96911.00
2023-05-23T10:53:03.659Z,96913.03
2023-05-23T10:55:33.809Z,96922.28
2023-05-23T10:58:14.317Z,96917.50
2023-05-23T11:00:52.597Z,96919.56
2023-05-23T11:03:21.135Z,96928.78
2023-05-23T11:05:49.713Z,96935.63
2023-05-23T11:08:18.237Z,96936.06
2023-05-23T11:10:57.197Z,96935.22
2023-05-23T11:13:27.121Z,96929.75
2023-05-23T11:15:55.313Z,96922.81
2023-05-23T11:18:29.191Z,96933.97
2023-05-23T11:20:59.977Z,96940.63
2023-05-23T11:23:42.286Z,96929.72
2023-05-23T11:26:31.595Z,96928.56
2023-05-23T11:29:03.290Z,96918.91
2023-05-23T11:31:31.690Z,96923.47
2023-05-23T11:33:59.949Z,96912.56
2023-05-23T11:36:29.505Z,96913.34
2023-05-23T11:38:57.993Z,96900.38
2023-05-23T11:41:26.527Z,96910.44
2023-05-23T11:43:55.372Z,96911.97
2023-05-23T11:46:25.016Z,96934.75
2023-05-23T11:48:54.901Z,96967.28
2023-05-23T11:51:23.635Z,97026.44
2023-05-23T11:53:51.873Z,97080.19
2023-05-23T11:56:20.132Z,97084.69
2023-05-23T11:58:48.406Z,97109.91
2023-05-23T12:01:16.910Z,97122.53
2023-05-23T12:03:51.446Z,97133.94
2023-05-23T12:06:20.405Z,97168.69
2023-05-23T12:08:48.861Z,97194.19
2023-05-23T12:11:17.571Z,97216.13
2023-05-23T12:13:47.075Z,97244.84
2023-05-23T12:16:16.112Z,97251.69
2023-05-23T12:18:44.700Z,97231.44
2023-05-23T12:21:14.911Z,97247.78
2023-05-23T12:23:43.618Z,97239.38
2023-05-23T12:26:11.786Z,97238.53
2023-05-23T12:28:41.259Z,97248.53
2023-05-23T12:31:13.772Z,97232.44
2023-05-23T12:33:44.151Z,97245.69
2023-05-23T12:36:12.729Z,97250.41
2023-05-23T12:38:45.679Z,97256.78
2023-05-23T12:41:17.176Z,97242.16
2023-05-23T12:43:51.923Z,97252.59
2023-05-23T12:46:20.656Z,97250.97
2023-05-23T12:48:48.941Z,97227.91
2023-05-23T12:51:17.420Z,97234.81
2023-05-23T12:53:47.201Z,97229.72
2023-05-23T12:56:15.424Z,97211.66
2023-05-23T12:58:43.727Z,97226.41
2023-05-23T13:01:12.413Z,97243.63
2023-05-23T13:03:40.844Z,97243.16
2023-05-23T13:06:09.435Z,97245.13
2023-05-23T13:08:37.637Z,97244.88
2023-05-23T13:11:07.749Z,97226.88
2023-05-23T13:13:35.907Z,97226.41
2023-05-23T13:16:04.140Z,97206.06
2023-05-23T13:18:32.502Z,97211.00
2023-05-23T13:21:00.676Z,97205.66
2023-05-23T13:23:28.936Z,97196.03
2023-05-23T13:25:58.184Z,97193.53
2023-05-23T13:28:27.738Z,97192.59
2023-05-23T13:30:55.981Z,97182.66
2023-05-23T13:33:24.357Z,97178.66
2023-05-23T13:35:53.174Z,97169.22
2023-05-23T13:38:23.396Z,97170.25
2023-05-23T13:40:53.562Z,97177.69
2023-05-23T13:43:21.734Z,97172.03
2023-05-23T13:45:51.339Z,97156.47
2023-05-23T13:48:19.502Z,97169.03
2023-05-23T13:50:47.985Z,97169.13
2023-05-23T13:53:17.140Z,97179.63
2023-05-23T13:55:46.715Z,97182.28
2023-05-23T13:58:14.962Z,97188.91
2023-05-23T14:00:43.610Z,97182.69
2023-05-23T14:03:13.531Z,97203.75
2023-05-23T14:05:41.877Z,97209.16
2023-05-23T14:08:11.422Z,97213.34
2023-05-23T14:10:39.810Z,97200.47
2023-05-23T14:13:08.580Z,97215.78
2023-05-23T14:15:38.625Z,97202.28
2023-05-23T14:18:07.098Z,97202.28
2023-05-23T14:20:36.697Z,97201.00
2023-05-23T14:23:05.035Z,97199.75
2023-05-23T14:25:33.312Z,97195.97
2023-05-23T14:28:01.459Z,97201.53
2023-05-23T14:30:29.655Z,97139.44
2023-05-23T14:32:57.893Z,97203.75
2023-05-23T14:35:26.409Z,97201.94
2023-05-23T14:37:55.982Z,97189.63
2023-05-23T14:40:24.241Z,97198.75
2023-05-23T14:42:52.536Z,97192.19
2023-05-23T14:45:21.108Z,97186.31
2023-05-23T14:47:49.371Z,97190.16
2023-05-23T14:50:17.878Z,97189.63
2023-05-23T14:52:46.182Z,97198.84
2023-05-23T14:55:15.766Z,97195.59
2023-05-23T14:57:44.173Z,97204.78
2023-05-23T15:00:13.454Z,97200.22
2023-05-23T15:02:41.700Z,97208.41
2023-05-23T15:05:10.596Z,97197.28
2023-05-23T15:07:38.913Z,97206.19
2023-05-23T15:10:08.699Z,97208.22
2023-05-23T15:12:38.439Z,97206.28
2023-05-23T15:15:07.437Z,97213.44
2023-05-23T15:17:35.804Z,97217.91
2023-05-23T15:20:06.954Z,97198.78
2023-05-23T15:22:39.470Z,97210.66
2023-05-23T15:25:09.337Z,97213.13
2023-05-23T15:27:39.047Z,97213.00
2023-05-23T15:30:08.659Z,97215.34
2023-05-23T15:32:37.000Z,97214.28
2023-05-23T15:35:05.921Z,97212.13
2023-05-23T15:37:34.081Z,97223.09
2023-05-23T15:40:02.709Z,97179.56
2023-05-23T15:42:31.059Z,97213.53
2023-05-23T15:45:00.575Z,97203.78
2023-05-23T15:47:28.814Z,97214.59
2023-05-23T15:49:57.063Z,97196.84
2023-05-23T15:52:25.347Z,97175.38
2023-05-23T15:54:53.445Z,97193.31
2023-05-23T15:57:21.670Z,97185.63
2023-05-23T15:59:49.821Z,97191.31
2023-05-23T16:02:20.376Z,97179.69
2023-05-23T16:04:48.647Z,97178.19
2023-05-23T16:07:18.361Z,97198.56
2023-05-23T16:09:46.826Z,97198.06
2023-05-23T16:12:15.003Z,97200.63
2023-05-23T16:14:43.354Z,97188.31
2023-05-23T16:17:11.518Z,97193.56
2023-05-23T16:19:41.233Z,97195.34
2023-05-23T16:22:09.421Z,97197.69
2023-05-23T16:24:37.657Z,97197.25
2023-05-23T16:27:06.293Z,97206.09
2023-05-23T16:29:34.498Z,97208.56
2023-05-23T16:32:02.638Z,97213.09
2023-05-23T16:34:30.840Z,97215.53
2023-05-23T16:37:00.700Z,97209.22
2023-05-23T16:39:28.968Z,97209.94
2023-05-23T16:41:59.498Z,97192.34
2023-05-23T16:44:28.791Z,97210.13
2023-05-23T16:46:57.092Z,97201.84
2023-05-23T16:49:25.331Z,97212.81
2023-05-23T16:51:53.639Z,97205.00
2023-05-23T16:54:23.234Z,97199.94
2023-05-23T16:56:51.442Z,97197.81
2023-05-23T16:59:19.631Z,97199.53
2023-05-23T17:01:47.991Z,97168.34
2023-05-23T17:04:17.667Z,97205.22
2023-05-23T17:06:47.954Z,97196.16
2023-05-23T17:09:18.037Z,97213.19
2023-05-23T17:11:47.678Z,97209.59
2023-05-23T17:14:16.325Z,97207.31
2023-05-23T17:16:44.502Z,97202.88
2023-05-23T17:19:13.435Z,97187.84
2023-05-23T17:21:41.637Z,97166.38
2023-05-23T17:24:09.848Z,97199.66
2023-05-23T17:26:38.086Z,97207.41
2023-05-23T17:29:07.870Z,97215.91
2023-05-23T17:31:36.301Z,97220.63
2023-05-23T17:34:04.625Z,97229.81
2023-05-23T17:36:34.299Z,97236.09
2023-05-23T17:39:02.501Z,97235.97
2023-05-23T17:41:30.687Z,97223.88
2023-05-23T17:43:58.869Z,97242.66
2023-05-23T17:46:28.793Z,97246.59
2023-05-23T17:48:56.958Z,97237.88
2023-05-23T17:51:25.135Z,97250.03
2023-05-23T17:53:53.983Z,97249.72
2023-05-23T17:56:23.507Z,97248.09
2023-05-23T17:58:52.797Z,97247.09
2023-05-23T18:01:21.110Z,97248.09
2023-05-23T18:03:50.835Z,97248.16
2023-05-23T18:06:19.102Z,97236.09
2023-05-23T18:08:47.261Z,97237.03
2023-05-23T18:11:15.604Z,97250.69
2023-05-23T18:13:44.142Z,97231.91
2023-05-23T18:16:12.417Z,97235.75
2023-05-23T18:18:41.337Z,97236.94
2023-05-23T18:21:11.340Z,97237.78
2023-05-23T18:23:39.544Z,97219.91
2023-05-23T18:26:07.743Z,97250.53
2023-05-23T18:28:36.072Z,97249.25
2023-05-23T18:31:04.626Z,97244.22
2023-05-23T18:33:32.810Z,97237.16
2023-05-23T18:36:01.698Z,97250.41
2023-05-23T18:38:31.465Z,97242.06
2023-05-23T18:40:59.740Z,97247.66
2023-05-23T18:43:27.925Z,97241.13
2023-05-23T18:45:56.381Z,97247.31
2023-05-23T18:48:24.722Z,97260.44
2023-05-23T18:50:53.121Z,97257.13
2023-05-23T18:53:21.302Z,97249.78
2023-05-23T18:55:51.176Z,97255.25
2023-05-23T18:58:19.835Z,97263.88
2023-05-23T19:00:48.134Z,97264.63
2023-05-23T19:03:17.930Z,97258.88
2023-05-23T19:05:46.484Z,97251.41
2023-05-23T19:08:14.638Z,97272.41
2023-05-23T19:10:43.113Z,97278.16
2023-05-23T19:13:13.924Z,97267.94
2023-05-23T19:15:42.122Z,97264.53
2023-05-23T19:18:10.499Z,97270.41
2023-05-23T19:20:38.906Z,97268.34
2023-05-23T19:23:08.174Z,97276.47
2023-05-23T19:25:36.554Z,97271.47
2023-05-23T19:28:04.875Z,97275.63
2023-05-23T19:30:34.577Z,97273.06
2023-05-23T19:33:02.842Z,97277.81
2023-05-23T19:35:31.235Z,97272.78
2023-05-23T19:37:59.446Z,97280.66
2023-05-23T19:40:27.704Z,97222.72
2023-05-23T19:42:55.994Z,97288.03
2023-05-23T19:45:24.412Z,97288.50
2023-05-23T19:47:54.190Z,97292.84
2023-05-23T19:50:22.765Z,97285.53
2023-05-23T19:52:51.520Z,97284.84
2023-05-23T19:55:19.693Z,97285.75
2023-05-23T19:57:48.012Z,97271.72
2023-05-23T20:00:16.657Z,97295.88
2023-05-23T20:02:45.349Z,97300.13
2023-05-23T20:05:15.037Z,97296.72
2023-05-23T20:07:43.452Z,97280.03
2023-05-23T20:10:12.244Z,97297.56
2023-05-23T20:12:40.471Z,97287.81
2023-05-23T20:15:09.829Z,97283.16
2023-05-23T20:17:38.218Z,97285.63
2023-05-23T20:20:07.728Z,97285.53
2023-05-23T20:22:37.375Z,97287.72
2023-05-23T20:25:06.616Z,97295.50
2023-05-23T20:27:35.001Z,97276.44
2023-05-23T20:30:03.292Z,97312.41
2023-05-23T20:32:31.667Z,97297.94
2023-05-23T20:34:59.867Z,97304.75
2023-05-23T20:37:28.576Z,97305.22
2023-05-23T20:39:58.216Z,97290.06
2023-05-23T20:42:26.826Z,97298.78
2023-05-23T20:44:57.126Z,97309.47
2023-05-23T20:47:25.812Z,97303.03
2023-05-23T20:49:54.107Z,97305.13
2023-05-23T20:52:23.111Z,97303.34
2023-05-23T20:54:52.639Z,97309.28
2023-05-23T20:57:23.197Z,97306.84
2023-05-23T20:59:51.394Z,97312.50
2023-05-23T21:02:19.570Z,97318.75
2023-05-23T21:04:47.883Z,97311.81
2023-05-23T21:07:16.328Z,97308.59
2023-05-23T21:09:44.551Z,97093.47
2023-05-23T21:12:12.886Z,97308.44
2023-05-23T21:14:42.442Z,97311.66
2023-05-23T21:17:10.895Z,97299.06
2023-05-23T21:19:39.155Z,97316.97
2023-05-23T21:22:07.404Z,97306.47
2023-05-23T21:24:35.670Z,97316.09
2023-05-23T21:27:03.954Z,97298.22
2023-05-23T21:29:32.343Z,97314.31
2023-05-23T21:32:02.194Z,97319.59
2023-05-23T21:34:30.388Z,97293.28
2023-05-23T21:36:58.506Z,97297.09
2023-05-23T21:39:36.097Z,97306.38
2023-05-23T21:42:08.573Z,97297.47
2023-05-23T21:44:38.251Z,97312.88
2023-05-23T21:47:09.937Z,97305.78
2023-05-23T21:49:38.164Z,97252.81
2023-05-23T21:52:06.680Z,97305.88
2023-05-23T21:54:35.124Z,97301.22
2023-05-23T21:57:03.433Z,97314.41
2023-05-23T21:59:31.654Z,97312.59
2023-05-23T22:02:00.024Z,97314.41
2023-05-23T22:04:29.724Z,97304.94
2023-05-23T22:06:58.767Z,97297.53
2023-05-23T22:09:27.076Z,97306.13
2023-05-23T22:11:55.486Z,97314.25
2023-05-23T22:14:23.657Z,97316.59
2023-05-23T22:16:52.203Z,97318.66
2023-05-23T22:19:21.196Z,97273.84
2023-05-23T22:21:51.024Z,97310.31
2023-05-23T22:24:19.290Z,97332.84
2023-05-23T22:26:47.516Z,97333.63
2023-05-23T22:29:15.997Z,97331.84
2023-05-23T22:31:44.271Z,97256.53
2023-05-23T22:34:12.489Z,97310.06
2023-05-23T22:36:40.619Z,97334.31
2023-05-23T22:39:10.299Z,97326.97
2023-05-23T22:41:38.506Z,97331.31
2023-05-23T22:44:06.684Z,97334.06
2023-05-23T22:46:34.933Z,97331.94
2023-05-23T22:49:03.894Z,97326.31
2023-05-23T22:51:34.280Z,97332.22
2023-05-23T22:54:02.912Z,97341.31
2023-05-23T22:56:32.580Z,97332.88
2023-05-23T22:59:00.771Z,97339.88
2023-05-23T23:01:29.151Z,97328.88
2023-05-23T23:03:57.358Z,97346.78
2023-05-23T23:06:25.595Z,97337.66
2023-05-23T23:08:54.490Z,97339.22
2023-05-23T23:11:22.705Z,97342.13
2023-05-23T23:13:52.432Z,97241.31
2023-05-23T23:16:21.317Z,97345.22
2023-05-23T23:18:49.513Z,97338.78
2023-05-23T23:21:17.850Z,97333.56
2023-05-23T23:23:46.081Z,97348.69
2023-05-23T23:26:14.208Z,97345.63
2023-05-23T23:28:42.450Z,97354.56
2023-05-23T23:31:12.175Z,97350.91
2023-05-23T23:33:40.427Z,97354.47
2023-05-23T23:36:09.009Z,97354.31
2023-05-23T23:38:38.278Z,97366.28
2023-05-23T23:41:06.654Z,97365.75
2023-05-23T23:43:34.889Z,97369.34
2023-05-23T23:46:03.048Z,97341.88
2023-05-23T23:48:32.656Z,97375.47
2023-05-23T23:51:00.905Z,97373.00
2023-05-23T23:53:30.322Z,97349.34
2023-05-23T23:55:58.432Z,97341.16
2023-05-23T23:58:26.641Z,97370.44
